createdAt,value
2019-05-25T00:03:35.995Z,11.40
2019-05-25T00:07:40.354Z,11.40
2019-05-25T00:11:49.736Z,11.30
2019-05-25T00:15:51.395Z,11.30
2019-05-25T00:19:49.863Z,11.20
2019-05-25T00:24:10.876Z,11.10
2019-05-25T00:27:53.992Z,11.00
2019-05-25T00:31:55.198Z,10.90
2019-05-25T00:36:25.214Z,10.80
2019-05-25T00:40:16.115Z,10.80
2019-05-25T00:44:18.037Z,10.70
2019-05-25T00:48:21.567Z,10.60
2019-05-25T00:52:24.616Z,10.50
2019-05-25T00:56:27.401Z,10.40
2019-05-25T01:00:31.823Z,10.30
2019-05-25T01:04:36.095Z,10.30
2019-05-25T01:08:34.555Z,10.10
2019-05-25T01:12:33.011Z,10.00
2019-05-25T01:16:36.442Z,9.90
2019-05-25T01:20:38.507Z,9.80
2019-05-25T01:24:45.140Z,9.80
2019-05-25T01:28:48.181Z,9.70
2019-05-25T01:32:48.895Z,9.70
2019-05-25T01:36:55.271Z,9.60
2019-05-25T01:40:53.815Z,9.50
2019-05-25T01:44:52.360Z,9.50
2019-05-25T01:48:50.905Z,9.50
2019-05-25T01:52:49.939Z,9.40
2019-05-25T01:56:48.411Z,9.30
2019-05-25T02:00:59.212Z,9.30
2019-05-25T02:04:57.618Z,9.30
2019-05-25T02:08:56.079Z,9.30
2019-05-25T02:13:00.806Z,9.20
2019-05-25T02:17:12.804Z,9.20
2019-05-25T02:21:13.826Z,9.10
2019-05-25T02:25:18.288Z,9.00
2019-05-25T02:29:16.482Z,9.10
2019-05-25T02:33:20.876Z,9.10
2019-05-25T02:37:19.312Z,9.10
2019-05-25T02:41:18.307Z,9.00
2019-05-25T02:45:23.741Z,9.00
2019-05-25T02:49:31.615Z,9.00
2019-05-25T02:53:32.392Z,9.00
2019-05-25T02:57:30.881Z,8.90
2019-05-25T03:01:29.429Z,8.90
2019-05-25T03:05:28.037Z,8.90
2019-05-25T03:09:28.487Z,8.90
2019-05-25T03:17:53.007Z,8.90
2019-05-25T03:21:59.243Z,9.00
2019-05-25T03:26:03.350Z,8.90
2019-05-25T03:30:08.579Z,8.90
2019-05-25T03:34:04.694Z,8.80
2019-05-25T03:38:04.918Z,8.80
2019-05-25T03:42:30.582Z,8.70
2019-05-25T03:46:32.384Z,8.70
2019-05-25T03:50:34.231Z,8.80
2019-05-25T03:54:35.734Z,8.80
2019-05-25T03:58:36.618Z,8.90
2019-05-25T04:02:40.272Z,9.10
2019-05-25T04:06:38.783Z,9.20
2019-05-25T04:10:38.996Z,9.20
2019-05-25T04:14:42.806Z,9.20
2019-05-25T04:18:41.397Z,9.20
2019-05-25T04:22:43.245Z,9.20
2019-05-25T04:26:44.483Z,9.40
2019-05-25T04:30:42.997Z,9.40
2019-05-25T04:34:45.238Z,9.60
2019-05-25T04:38:43.904Z,9.70
2019-05-25T04:42:47.534Z,9.90
2019-05-25T04:46:54.447Z,10.00
2019-05-25T04:50:52.975Z,10.10
2019-05-25T04:54:57.073Z,10.20
2019-05-25T04:58:58.902Z,10.40
2019-05-25T05:02:57.955Z,10.40
2019-05-25T05:07:01.314Z,10.60
2019-05-25T05:11:02.591Z,10.70
2019-05-25T05:15:01.130Z,10.70
2019-05-25T05:19:06.309Z,11.00
2019-05-25T05:23:10.711Z,11.20
2019-05-25T05:27:33.384Z,11.20
2019-05-25T05:31:23.157Z,11.30
2019-05-25T05:35:13.955Z,11.20
2019-05-25T05:39:12.485Z,11.20
2019-05-25T05:43:13.915Z,11.40
2019-05-25T05:47:14.988Z,11.70
2019-05-25T05:51:17.006Z,12.00
2019-05-25T05:55:18.611Z,12.20
2019-05-25T05:59:19.283Z,12.30
2019-05-25T06:03:17.837Z,12.30
2019-05-25T06:07:19.712Z,12.30
2019-05-25T06:11:21.912Z,12.30
2019-05-25T06:15:20.591Z,12.30
2019-05-25T06:19:24.724Z,12.30
2019-05-25T06:23:23.238Z,12.40
2019-05-25T06:27:27.540Z,12.50
2019-05-25T06:31:24.895Z,12.60
2019-05-25T06:35:26.571Z,12.60
2019-05-25T06:39:25.158Z,12.70
2019-05-25T06:43:24.186Z,12.70
2019-05-25T06:47:22.829Z,12.70
2019-05-25T06:51:22.880Z,12.90
2019-05-25T06:55:21.420Z,12.90
2019-05-25T06:59:23.254Z,13.00
2019-05-25T07:03:23.806Z,12.90
2019-05-25T07:07:25.183Z,13.00
2019-05-25T07:11:29.075Z,13.00
2019-05-25T07:15:29.966Z,13.00
2019-05-25T07:19:28.693Z,13.10
2019-05-25T07:23:27.220Z,13.30
2019-05-25T07:27:25.729Z,13.70
2019-05-25T07:31:25.639Z,14.00
2019-05-25T07:35:30.679Z,14.20
2019-05-25T07:39:49.986Z,14.00
2019-05-25T07:43:48.538Z,13.70
2019-05-25T07:47:48.791Z,13.40
2019-05-25T07:51:55.171Z,13.70
2019-05-25T08:00:05.334Z,14.10
2019-05-25T08:04:04.603Z,14.20
2019-05-25T08:08:03.762Z,14.20
2019-05-25T08:12:02.634Z,14.20
2019-05-25T08:16:01.109Z,14.40
2019-05-25T08:20:03.248Z,14.70
2019-05-25T08:24:03.304Z,15.00
2019-05-25T08:28:05.551Z,15.30
2019-05-25T08:32:04.384Z,16.10
2019-05-25T08:36:24.580Z,17.00
2019-05-25T08:40:30.258Z,17.10
2019-05-25T08:44:28.794Z,16.90
2019-05-25T08:48:28.049Z,16.60
2019-05-25T08:52:31.149Z,16.70
2019-05-25T08:56:29.790Z,16.70
2019-05-25T09:00:35.221Z,16.40
2019-05-25T09:04:37.720Z,16.00
2019-05-25T09:08:36.284Z,15.50
2019-05-25T09:12:36.710Z,15.70
2019-05-25T09:16:39.385Z,16.30
2019-05-25T09:20:39.464Z,16.80
2019-05-25T09:24:41.871Z,16.80
2019-05-25T09:29:05.048Z,16.80
2019-05-25T09:33:02.743Z,16.70
2019-05-25T09:37:13.760Z,16.60
2019-05-25T09:41:16.655Z,16.10
2019-05-25T09:45:14.202Z,16.00
2019-05-25T09:49:12.957Z,16.20
2019-05-25T09:53:11.493Z,16.50
2019-05-25T09:57:09.971Z,16.70
2019-05-25T10:01:08.448Z,17.10
2019-05-25T10:05:09.675Z,17.00
2019-05-25T10:09:08.144Z,17.20
2019-05-25T10:13:06.621Z,17.80
2019-05-25T10:17:08.054Z,18.00
2019-05-25T10:21:06.636Z,18.20
2019-05-25T10:25:07.135Z,18.40
2019-05-25T10:29:05.655Z,18.40
2019-05-25T10:33:04.450Z,18.00
2019-05-25T10:37:02.913Z,17.60
2019-05-25T10:41:01.448Z,17.80
2019-05-25T10:45:00.473Z,18.20
2019-05-25T10:48:59.021Z,18.40
2019-05-25T10:52:59.164Z,18.10
2019-05-25T10:56:58.480Z,18.50
2019-05-25T11:00:59.667Z,19.10
2019-05-25T11:04:58.202Z,19.60
2019-05-25T11:08:56.793Z,19.40
2019-05-25T11:13:00.109Z,19.20
2019-05-25T11:16:58.684Z,19.10
2019-05-25T11:20:57.196Z,18.80
2019-05-25T11:24:55.651Z,19.10
2019-05-25T11:29:01.727Z,19.00
2019-05-25T11:33:06.163Z,19.50
2019-05-25T11:37:08.924Z,19.80
2019-05-25T11:41:07.495Z,19.80
2019-05-25T11:45:07.690Z,19.50
2019-05-25T11:49:21.605Z,19.60
2019-05-25T11:53:08.544Z,19.60
2019-05-25T11:57:07.090Z,19.50
2019-05-25T12:01:05.818Z,20.00
2019-05-25T12:05:09.301Z,20.10
2019-05-25T12:09:08.563Z,20.90
2019-05-25T12:13:07.103Z,20.90
2019-05-25T12:17:05.702Z,20.60
2019-05-25T12:21:04.400Z,20.50
2019-05-25T12:25:04.219Z,19.90
2019-05-25T12:29:09.831Z,19.50
2019-05-25T12:33:14.347Z,19.00
2019-05-25T12:37:12.812Z,18.50
2019-05-25T12:41:14.469Z,18.70
2019-05-25T12:45:13.526Z,19.00
2019-05-25T12:49:12.468Z,18.60
2019-05-25T12:53:11.085Z,18.70
2019-05-25T12:57:09.583Z,19.30
2019-05-25T13:01:08.544Z,19.60
2019-05-25T13:05:09.443Z,20.30
2019-05-25T13:09:11.321Z,20.90
2019-05-25T13:13:10.164Z,20.60
2019-05-25T13:17:08.627Z,20.20
2019-05-25T13:21:07.112Z,19.80
2019-05-25T13:25:09.561Z,20.00
2019-05-25T13:29:08.044Z,19.70
2019-05-25T13:33:10.003Z,19.50
2019-05-25T13:37:08.581Z,19.50
2019-05-25T13:41:07.144Z,19.80
2019-05-25T13:45:07.281Z,19.90
2019-05-25T13:49:07.832Z,20.30
2019-05-25T13:53:08.247Z,22.00
2019-05-25T13:57:06.848Z,24.20
2019-05-25T14:01:05.296Z,27.20
2019-05-25T14:05:07.602Z,29.70
2019-05-25T14:09:07.138Z,31.60
2019-05-25T14:13:05.685Z,32.20
2019-05-25T14:17:04.234Z,33.10
2019-05-25T14:21:08.036Z,30.20
2019-05-25T14:25:08.359Z,26.60
2019-05-25T14:29:06.882Z,26.80
2019-05-25T14:33:05.668Z,24.60
2019-05-25T14:37:04.278Z,25.40
2019-05-25T14:41:02.878Z,26.60
2019-05-25T14:45:03.224Z,28.30
2019-05-25T14:49:02.164Z,30.00
2019-05-25T14:53:01.077Z,31.50
2019-05-25T14:57:03.559Z,33.10
2019-05-25T15:01:02.081Z,33.30
2019-05-25T15:05:00.541Z,34.00
2019-05-25T15:08:59.037Z,32.90
2019-05-25T15:12:57.590Z,29.10
2019-05-25T15:16:56.045Z,25.30
2019-05-25T15:20:54.527Z,25.30
2019-05-25T15:24:56.454Z,29.30
2019-05-25T15:28:59.347Z,31.00
2019-05-25T15:32:57.887Z,33.10
2019-05-25T15:36:59.521Z,33.00
2019-05-25T15:40:58.066Z,29.70
2019-05-25T15:44:56.542Z,25.20
2019-05-25T15:48:55.031Z,22.80
2019-05-25T15:52:58.294Z,21.20
2019-05-25T15:56:59.360Z,20.10
2019-05-25T16:00:59.771Z,20.30
2019-05-25T16:04:59.950Z,26.20
2019-05-25T16:09:01.938Z,30.70
2019-05-25T16:13:00.424Z,30.80
2019-05-25T16:16:58.967Z,26.30
2019-05-25T16:21:01.170Z,23.40
2019-05-25T16:25:05.130Z,23.20
2019-05-25T16:29:03.857Z,27.50
2019-05-25T16:33:17.830Z,30.20
2019-05-25T16:37:03.873Z,29.90
2019-05-25T16:41:04.452Z,29.90
2019-05-25T16:45:11.483Z,29.20
2019-05-25T16:49:13.628Z,29.50
2019-05-25T16:53:12.190Z,29.40
2019-05-25T16:57:10.717Z,29.40
2019-05-25T17:01:09.263Z,28.70
2019-05-25T17:05:10.041Z,28.90
2019-05-25T17:09:08.562Z,29.40
2019-05-25T17:13:08.814Z,27.50
2019-05-25T17:17:07.440Z,24.40
2019-05-25T17:21:06.371Z,23.00
2019-05-25T17:25:07.446Z,22.00
2019-05-25T17:29:05.917Z,21.00
2019-05-25T17:33:04.517Z,20.20
2019-05-25T17:37:05.409Z,19.80
2019-05-25T17:41:07.909Z,19.60
2019-05-25T17:45:08.508Z,19.20
2019-05-25T17:49:10.887Z,18.80
2019-05-25T17:53:09.415Z,18.40
2019-05-25T17:57:12.232Z,18.20
2019-05-25T18:01:10.689Z,18.10
2019-05-25T18:05:12.953Z,18.10
2019-05-25T18:09:11.431Z,18.10
2019-05-25T18:13:16.026Z,18.10
2019-05-25T18:17:21.214Z,18.00
2019-05-25T18:21:19.691Z,17.90
2019-05-25T18:25:18.607Z,17.80
2019-05-25T18:29:17.066Z,17.80
2019-05-25T18:33:17.660Z,17.80
2019-05-25T18:37:16.210Z,17.90
2019-05-25T18:41:14.665Z,17.90
2019-05-25T18:45:14.196Z,17.80
2019-05-25T18:49:15.258Z,17.80
2019-05-25T18:53:13.801Z,17.70
2019-05-25T18:57:12.869Z,17.90
2019-05-25T19:01:11.408Z,17.90
2019-05-25T19:05:10.354Z,17.80
2019-05-25T19:09:15.472Z,17.40
2019-05-25T19:13:13.944Z,17.10
2019-05-25T19:17:12.402Z,16.70
2019-05-25T19:21:16.749Z,16.40
2019-05-25T19:25:16.868Z,16.20
2019-05-25T19:29:15.444Z,16.20
2019-05-25T19:33:14.792Z,16.20
2019-05-25T19:37:19.347Z,16.30
2019-05-25T19:41:20.609Z,16.30
2019-05-25T19:45:20.045Z,16.00
2019-05-25T19:49:18.563Z,15.50
2019-05-25T19:53:17.043Z,15.20
2019-05-25T19:57:17.133Z,15.00
2019-05-25T20:01:15.736Z,14.80
2019-05-25T20:05:17.099Z,14.60
2019-05-25T20:09:18.905Z,14.40
2019-05-25T20:13:18.385Z,14.30
2019-05-25T20:17:17.222Z,14.10
2019-05-25T20:21:15.695Z,14.10
2019-05-25T20:25:20.328Z,14.10
2019-05-25T20:29:20.432Z,13.90
2019-05-25T20:33:27.433Z,13.70
2019-05-25T20:37:20.896Z,13.60
2019-05-25T20:41:21.136Z,13.50
2019-05-25T20:45:22.730Z,13.40
2019-05-25T20:49:21.209Z,13.40
2019-05-25T20:53:19.681Z,13.40
2019-05-25T20:57:18.166Z,13.20
2019-05-25T21:01:16.699Z,13.00
2019-05-25T21:05:15.258Z,12.90
2019-05-25T21:09:13.802Z,12.80
2019-05-25T21:13:12.256Z,12.80
2019-05-25T21:17:10.732Z,12.70
2019-05-25T21:21:09.335Z,12.50
2019-05-25T21:25:09.414Z,12.40
2019-05-25T21:29:21.754Z,12.40
2019-05-25T21:33:21.465Z,12.30
2019-05-25T21:37:19.992Z,12.20
2019-05-25T21:41:22.104Z,12.10
2019-05-25T21:45:21.208Z,12.00
2019-05-25T21:49:19.759Z,11.90
2019-05-25T21:53:29.296Z,11.90
2019-05-25T21:57:33.492Z,11.90
2019-05-25T22:01:30.746Z,11.80
2019-05-25T22:05:31.308Z,11.60
2019-05-25T22:09:35.003Z,11.50
2019-05-25T22:13:40.248Z,11.50
2019-05-25T22:17:39.447Z,11.40
2019-05-25T22:21:39.355Z,11.30
2019-05-25T22:25:37.826Z,11.20
2019-05-25T22:29:36.331Z,11.20
2019-05-25T22:33:36.529Z,11.20
2019-05-25T22:37:37.051Z,11.10
2019-05-25T22:41:38.701Z,11.00
2019-05-25T22:45:37.228Z,10.90
2019-05-25T22:49:37.245Z,10.90
2019-05-25T22:53:35.807Z,10.70
2019-05-25T22:57:34.572Z,10.60
2019-05-25T23:01:33.107Z,10.60
2019-05-25T23:05:31.978Z,10.60
2019-05-25T23:09:30.484Z,10.60
2019-05-25T23:13:29.386Z,10.50
2019-05-25T23:17:27.904Z,10.40
2019-05-25T23:21:31.481Z,10.30
2019-05-25T23:25:30.031Z,10.20
2019-05-25T23:29:28.484Z,10.10
2019-05-25T23:33:26.949Z,10.10
2019-05-25T23:37:25.515Z,10.00
2019-05-25T23:41:24.031Z,9.90
2019-05-25T23:45:23.059Z,10.00
2019-05-25T23:49:24.690Z,9.90
2019-05-25T23:53:28.871Z,9.80
2019-05-25T23:57:28.858Z,9.70
